createdAt,value
2022-12-11T00:00:06.342Z,14.68
2022-12-11T00:02:32.849Z,14.40
2022-12-11T00:04:59.340Z,14.02
2022-12-11T00:07:25.841Z,13.98
2022-12-11T00:09:52.289Z,14.75
2022-12-11T00:12:18.765Z,14.45
2022-12-11T00:14:45.179Z,13.80
2022-12-11T00:17:11.683Z,14.30
2022-12-11T00:19:38.131Z,12.38
2022-12-11T00:22:04.626Z,13.93
2022-12-11T00:24:31.101Z,13.07
2022-12-11T00:26:57.540Z,13.93
2022-12-11T00:29:23.992Z,13.38
2022-12-11T00:31:50.520Z,13.27
2022-12-11T00:34:17.060Z,13.68
2022-12-11T00:36:43.541Z,13.50
2022-12-11T00:39:09.969Z,12.87
2022-12-11T00:41:36.444Z,13.05
2022-12-11T00:44:04.361Z,13.32
2022-12-11T00:46:30.874Z,13.40
2022-12-11T00:48:57.361Z,13.05
2022-12-11T00:51:23.884Z,14.03
2022-12-11T00:53:50.435Z,13.80
2022-12-11T00:56:20.574Z,13.13
2022-12-11T00:58:47.534Z,12.43
2022-12-11T01:01:17.751Z,13.65
2022-12-11T01:03:44.905Z,13.60
2022-12-11T01:06:17.852Z,13.27
2022-12-11T01:08:45.100Z,14.18
2022-12-11T01:11:13.896Z,15.25
2022-12-11T01:13:40.856Z,13.45
2022-12-11T01:16:10.578Z,12.63
2022-12-11T01:18:37.916Z,13.88
2022-12-11T01:21:13.362Z,13.10
2022-12-11T01:23:40.575Z,15.30
2022-12-11T01:26:13.069Z,15.35
2022-12-11T01:28:40.308Z,14.23
2022-12-11T01:31:15.840Z,15.15
2022-12-11T01:33:42.480Z,14.65
2022-12-11T01:36:14.127Z,14.32
2022-12-11T01:38:41.065Z,15.68
2022-12-11T01:41:08.049Z,14.50
2022-12-11T01:43:34.728Z,15.52
2022-12-11T01:46:01.550Z,14.88
2022-12-11T01:48:31.857Z,14.90
2022-12-11T01:51:02.480Z,16.02
2022-12-11T01:53:33.557Z,15.23
2022-12-11T01:56:00.881Z,15.30
2022-12-11T01:58:38.588Z,15.73
2022-12-11T02:01:06.282Z,15.15
2022-12-11T02:03:32.802Z,13.48
2022-12-11T02:06:00.570Z,16.00
2022-12-11T02:08:27.220Z,15.18
2022-12-11T02:11:09.261Z,14.82
2022-12-11T02:13:54.905Z,14.95
2022-12-11T02:16:29.565Z,13.88
2022-12-11T02:19:01.021Z,15.00
2022-12-11T02:21:50.810Z,15.00
2022-12-11T02:24:32.292Z,14.45
2022-12-11T02:27:07.898Z,15.95
2022-12-11T02:29:58.501Z,15.38
2022-12-11T02:32:32.665Z,14.50
2022-12-11T02:35:29.563Z,16.23
2022-12-11T02:38:28.479Z,15.93
2022-12-11T02:40:58.145Z,15.75
2022-12-11T02:43:25.824Z,15.73
2022-12-11T02:45:53.960Z,15.93
2022-12-11T02:48:24.230Z,14.38
2022-12-11T02:50:56.529Z,14.07
2022-12-11T02:53:26.177Z,15.88
2022-12-11T02:56:02.112Z,15.50
2022-12-11T02:58:32.947Z,15.83
2022-12-11T03:00:59.673Z,14.63
2022-12-11T03:03:29.292Z,14.63
2022-12-11T03:05:55.777Z,14.40
2022-12-11T03:08:22.266Z,13.60
2022-12-11T03:10:49.050Z,14.33
2022-12-11T03:13:20.617Z,13.75
2022-12-11T03:16:04.283Z,14.88
2022-12-11T03:18:42.463Z,14.80
2022-12-11T03:21:18.728Z,14.57
2022-12-11T03:24:02.878Z,13.87
2022-12-11T03:26:33.004Z,13.05
2022-12-11T03:29:15.972Z,14.07
2022-12-11T03:31:46.029Z,13.55
2022-12-11T03:34:24.639Z,12.98
2022-12-11T03:36:53.833Z,14.10
2022-12-11T03:39:32.162Z,14.90
2022-12-11T03:42:02.848Z,14.30
2022-12-11T03:44:32.171Z,14.65
2022-12-11T03:47:01.739Z,13.25
2022-12-11T03:49:32.302Z,13.60
2022-12-11T03:52:01.661Z,12.23
2022-12-11T03:54:29.128Z,13.98
2022-12-11T03:56:58.187Z,13.43
2022-12-11T03:59:25.013Z,13.90
2022-12-11T04:01:51.635Z,14.23
2022-12-11T04:04:18.669Z,13.57
2022-12-11T04:06:45.209Z,12.75
2022-12-11T04:09:11.862Z,13.50
2022-12-11T04:11:39.533Z,13.30
2022-12-11T04:14:30.919Z,12.40
2022-12-11T04:16:58.068Z,13.68
2022-12-11T04:19:43.572Z,12.90
2022-12-11T04:22:34.869Z,14.43
2022-12-11T04:25:02.491Z,12.43
2022-12-11T04:27:47.721Z,13.37
2022-12-11T04:30:17.486Z,12.52
2022-12-11T04:32:44.283Z,12.98
2022-12-11T04:35:12.029Z,11.88
2022-12-11T04:37:39.274Z,11.32
2022-12-11T04:40:08.573Z,13.10
2022-12-11T04:42:35.066Z,12.32
2022-12-11T04:45:01.568Z,11.75
2022-12-11T04:47:28.009Z,11.65
2022-12-11T04:49:54.441Z,11.63
2022-12-11T04:52:21.295Z,11.43
2022-12-11T04:54:48.004Z,12.32
2022-12-11T04:57:14.525Z,11.23
2022-12-11T04:59:41.000Z,11.30
2022-12-11T05:02:07.776Z,11.38
2022-12-11T05:04:35.299Z,10.57
2022-12-11T05:07:02.122Z,11.05
2022-12-11T05:09:28.650Z,10.50
2022-12-11T05:11:55.997Z,11.02
2022-12-11T05:14:22.532Z,10.35
2022-12-11T05:16:49.046Z,10.57
2022-12-11T05:19:15.612Z,10.80
2022-12-11T05:21:42.142Z,10.27
2022-12-11T05:24:08.894Z,10.23
2022-12-11T05:26:35.340Z,10.65
2022-12-11T05:29:01.780Z,10.97
2022-12-11T05:31:28.442Z,10.23
2022-12-11T05:33:54.916Z,10.13
2022-12-11T05:36:30.731Z,9.73
2022-12-11T05:38:58.685Z,10.00
2022-12-11T05:41:28.267Z,10.30
2022-12-11T05:43:55.316Z,10.20
2022-12-11T05:46:31.276Z,10.52
2022-12-11T05:49:00.555Z,9.80
2022-12-11T05:51:28.638Z,10.00
2022-12-11T05:53:56.629Z,10.97
2022-12-11T05:56:26.524Z,10.02
2022-12-11T05:58:53.817Z,10.63
2022-12-11T06:01:24.166Z,11.40
2022-12-11T06:03:50.714Z,10.73
2022-12-11T06:06:17.162Z,10.03
2022-12-11T06:08:43.749Z,9.27
2022-12-11T06:11:13.924Z,9.93
2022-12-11T06:13:40.681Z,9.77
2022-12-11T06:16:08.977Z,10.00
2022-12-11T06:18:39.875Z,9.17
2022-12-11T06:21:17.947Z,10.02
2022-12-11T06:23:45.957Z,10.30
2022-12-11T06:26:13.716Z,10.10
2022-12-11T06:28:40.333Z,10.35
2022-12-11T06:31:07.830Z,11.07
2022-12-11T06:33:34.865Z,9.63
2022-12-11T06:36:06.028Z,10.32
2022-12-11T06:38:32.527Z,10.48
2022-12-11T06:41:00.534Z,10.68
2022-12-11T06:43:26.970Z,11.00
2022-12-11T06:45:54.511Z,10.55
2022-12-11T06:48:23.631Z,10.95
2022-12-11T06:50:50.125Z,10.55
2022-12-11T06:53:16.936Z,10.07
2022-12-11T06:55:43.499Z,12.27
2022-12-11T06:58:10.825Z,10.52
2022-12-11T07:00:38.368Z,11.38
2022-12-11T07:03:05.488Z,10.98
2022-12-11T07:05:32.932Z,11.48
2022-12-11T07:07:59.680Z,13.17
2022-12-11T07:10:26.341Z,12.13
2022-12-11T07:12:54.498Z,12.77
2022-12-11T07:15:21.285Z,12.23
2022-12-11T07:17:47.700Z,11.95
2022-12-11T07:20:14.215Z,13.53
2022-12-11T07:22:46.233Z,11.80
2022-12-11T07:25:13.296Z,13.43
2022-12-11T07:27:39.993Z,12.88
2022-12-11T07:30:07.101Z,13.32
2022-12-11T07:32:33.727Z,11.53
2022-12-11T07:35:00.452Z,13.80
2022-12-11T07:37:26.972Z,12.27
2022-12-11T07:39:53.412Z,12.40
2022-12-11T07:42:19.889Z,11.82
2022-12-11T07:44:46.427Z,12.37
2022-12-11T07:47:12.872Z,11.45
2022-12-11T07:49:39.322Z,12.02
2022-12-11T07:52:05.793Z,11.88
2022-12-11T07:54:32.374Z,11.98
2022-12-11T07:56:58.826Z,11.80
2022-12-11T07:59:25.568Z,12.50
2022-12-11T08:01:52.075Z,13.00
2022-12-11T08:04:18.601Z,11.88
2022-12-11T08:06:45.135Z,12.40
2022-12-11T08:09:20.635Z,12.80
2022-12-11T08:11:51.548Z,12.60
2022-12-11T08:14:18.499Z,12.27
2022-12-11T08:16:45.194Z,12.95
2022-12-11T08:19:12.570Z,11.65
2022-12-11T08:21:40.070Z,12.20
2022-12-11T08:24:06.922Z,11.43
2022-12-11T08:26:33.424Z,12.68
2022-12-11T08:29:01.472Z,13.02
2022-12-11T08:31:28.538Z,12.27
2022-12-11T08:33:55.754Z,13.00
2022-12-11T08:36:23.023Z,11.20
2022-12-11T08:38:50.330Z,12.52
2022-12-11T08:41:19.914Z,12.23
2022-12-11T08:43:46.707Z,11.95
2022-12-11T08:46:14.104Z,11.40
2022-12-11T08:48:42.516Z,10.95
2022-12-11T08:51:13.015Z,11.88
2022-12-11T08:53:39.873Z,11.10
2022-12-11T08:56:09.572Z,10.63
2022-12-11T08:58:36.424Z,10.77
2022-12-11T09:01:11.488Z,10.43
2022-12-11T09:03:39.483Z,9.93
2022-12-11T09:06:08.395Z,11.18
2022-12-11T09:08:35.105Z,10.93
2022-12-11T09:11:10.133Z,11.07
2022-12-11T09:13:37.370Z,10.40
2022-12-11T09:16:09.625Z,11.07
2022-12-11T09:18:37.693Z,11.45
2022-12-11T09:21:07.277Z,11.32
2022-12-11T09:23:33.839Z,12.33
2022-12-11T09:26:00.466Z,10.35
2022-12-11T09:28:26.925Z,11.85
2022-12-11T09:30:53.715Z,12.63
2022-12-11T09:33:20.313Z,11.30
2022-12-11T09:35:46.798Z,12.60
2022-12-11T09:38:13.233Z,11.68
2022-12-11T09:40:43.296Z,11.50
2022-12-11T09:43:17.646Z,10.52
2022-12-11T09:45:44.199Z,11.20
2022-12-11T09:48:11.428Z,11.50
2022-12-11T09:50:39.519Z,11.45
2022-12-11T09:53:11.435Z,11.70
2022-12-11T09:56:04.689Z,11.68
2022-12-11T09:59:03.166Z,11.68
2022-12-11T10:01:44.819Z,11.77
2022-12-11T10:04:26.727Z,10.93
2022-12-11T10:07:05.429Z,12.02
2022-12-11T10:09:53.818Z,11.90
2022-12-11T10:13:10.318Z,11.77
2022-12-11T10:15:46.666Z,11.40
2022-12-11T10:18:18.174Z,11.65
2022-12-11T10:20:45.325Z,11.48
2022-12-11T10:23:19.892Z,10.68
2022-12-11T10:25:53.256Z,11.23
2022-12-11T10:28:20.874Z,11.70
2022-12-11T10:31:03.790Z,11.07
2022-12-11T10:33:40.167Z,11.52
2022-12-11T10:36:07.932Z,9.68
2022-12-11T10:38:40.502Z,10.68
2022-12-11T10:41:19.190Z,10.90
2022-12-11T10:43:49.899Z,11.18
2022-12-11T10:46:22.286Z,10.60
2022-12-11T10:48:50.357Z,10.30
2022-12-11T10:51:17.613Z,10.20
2022-12-11T10:53:52.904Z,9.97
2022-12-11T10:56:28.545Z,9.18
2022-12-11T10:58:57.301Z,9.50
2022-12-11T11:01:27.438Z,10.43
2022-12-11T11:04:13.766Z,8.73
2022-12-11T11:06:40.470Z,9.40
2022-12-11T11:09:29.184Z,9.45
2022-12-11T11:11:55.738Z,9.55
2022-12-11T11:14:25.220Z,9.77
2022-12-11T11:16:56.488Z,8.73
2022-12-11T11:19:26.854Z,9.60
2022-12-11T11:21:57.704Z,9.70
2022-12-11T11:24:28.736Z,9.65
2022-12-11T11:27:12.767Z,8.90
2022-12-11T11:29:41.332Z,9.65
2022-12-11T11:32:24.541Z,9.10
2022-12-11T11:34:50.980Z,9.13
2022-12-11T11:37:32.112Z,8.73
2022-12-11T11:40:08.297Z,9.85
2022-12-11T11:42:49.372Z,9.80
2022-12-11T11:45:22.285Z,9.00
2022-12-11T11:48:00.069Z,9.15
2022-12-11T11:50:35.719Z,9.40
2022-12-11T11:53:08.461Z,8.30
2022-12-11T11:55:42.197Z,9.10
2022-12-11T11:58:24.204Z,9.37
2022-12-11T12:00:54.808Z,8.18
2022-12-11T12:03:24.549Z,8.68
2022-12-11T12:06:04.433Z,8.32
2022-12-11T12:08:38.532Z,8.27
2022-12-11T12:11:20.092Z,7.77
2022-12-11T12:13:52.382Z,8.23
2022-12-11T12:16:54.348Z,8.10
2022-12-11T12:19:35.987Z,7.43
2022-12-11T12:22:33.882Z,8.45
2022-12-11T12:25:11.020Z,9.33
2022-12-11T12:27:52.762Z,8.50
2022-12-11T12:30:22.852Z,7.82
2022-12-11T12:33:32.254Z,7.93
2022-12-11T12:36:22.971Z,8.43
2022-12-11T12:39:02.524Z,8.93
2022-12-11T12:41:51.061Z,8.38
2022-12-11T12:44:20.394Z,8.00
2022-12-11T12:46:53.906Z,8.82
2022-12-11T12:49:36.120Z,8.15
2022-12-11T12:52:04.974Z,8.60
2022-12-11T12:54:33.326Z,9.13
2022-12-11T12:57:02.894Z,7.93
2022-12-11T12:59:29.579Z,9.18
2022-12-11T13:02:02.042Z,8.80
2022-12-11T13:04:55.173Z,9.33
2022-12-11T13:07:32.686Z,9.27
2022-12-11T13:10:21.723Z,9.25
2022-12-11T13:12:48.560Z,8.52
2022-12-11T13:15:31.396Z,9.68
2022-12-11T13:17:58.778Z,9.30
2022-12-11T13:20:28.055Z,9.27
2022-12-11T13:23:00.315Z,8.60
2022-12-11T13:25:31.197Z,9.23
2022-12-11T13:28:19.638Z,9.13
2022-12-11T13:31:07.777Z,10.37
2022-12-11T13:33:41.433Z,9.65
2022-12-11T13:36:16.747Z,10.30
2022-12-11T13:38:53.537Z,9.98
2022-12-11T13:41:20.790Z,10.45
2022-12-11T13:43:49.919Z,9.90
2022-12-11T13:46:26.558Z,9.93
2022-12-11T13:48:57.218Z,9.73
2022-12-11T13:51:25.909Z,10.30
2022-12-11T13:54:17.504Z,10.93
2022-12-11T13:57:09.054Z,10.43
2022-12-11T13:59:38.179Z,10.38
2022-12-11T14:02:21.477Z,11.23
2022-12-11T14:04:51.889Z,11.38
2022-12-11T14:07:26.424Z,10.77
2022-12-11T14:09:59.523Z,11.23
2022-12-11T14:12:26.172Z,11.55
2022-12-11T14:14:57.988Z,10.50
2022-12-11T14:17:27.238Z,11.18
2022-12-11T14:19:55.982Z,10.75
2022-12-11T14:22:25.641Z,12.73
2022-12-11T14:24:58.134Z,11.20
2022-12-11T14:27:26.308Z,13.02
2022-12-11T14:29:53.544Z,10.85
2022-12-11T14:32:30.242Z,11.32
2022-12-11T14:34:58.204Z,10.43
2022-12-11T14:37:26.468Z,11.93
2022-12-11T14:40:08.510Z,11.63
2022-12-11T14:42:43.585Z,13.10
2022-12-11T14:45:18.792Z,14.43
2022-12-11T14:47:45.871Z,22.17
2022-12-11T14:50:26.001Z,17.65
2022-12-11T14:53:02.477Z,16.00
2022-12-11T14:55:32.766Z,15.18
2022-12-11T14:58:07.522Z,16.15
2022-12-11T15:00:36.711Z,14.03
2022-12-11T15:03:21.399Z,13.25
2022-12-11T15:05:53.651Z,12.20
2022-12-11T15:08:30.362Z,12.80
2022-12-11T15:11:15.448Z,12.23
2022-12-11T15:13:56.192Z,11.17
2022-12-11T15:16:25.113Z,11.18
2022-12-11T15:18:53.514Z,11.90
2022-12-11T15:21:29.579Z,10.95
2022-12-11T15:23:58.319Z,11.40
2022-12-11T15:26:38.740Z,11.40
2022-12-11T15:29:25.474Z,10.88
2022-12-11T15:32:15.222Z,11.45
2022-12-11T15:35:24.771Z,14.07
2022-12-11T15:37:56.477Z,13.25
2022-12-11T15:40:23.647Z,13.37
2022-12-11T15:42:50.877Z,11.65
2022-12-11T15:45:25.259Z,12.35
2022-12-11T15:47:52.261Z,13.25
2022-12-11T15:50:23.183Z,12.23
2022-12-11T15:52:51.235Z,11.80
2022-12-11T15:55:21.176Z,12.20
2022-12-11T15:57:55.316Z,12.25
2022-12-11T16:00:23.895Z,11.32
2022-12-11T16:02:51.576Z,10.75
2022-12-11T16:05:18.064Z,11.83
2022-12-11T16:07:44.578Z,12.70
2022-12-11T16:10:17.523Z,13.13
2022-12-11T16:12:44.848Z,14.82
2022-12-11T16:15:16.286Z,14.38
2022-12-11T16:17:46.476Z,14.43
2022-12-11T16:20:15.000Z,13.13
2022-12-11T16:22:41.436Z,13.70
2022-12-11T16:25:08.175Z,14.68
2022-12-11T16:27:34.754Z,14.02
2022-12-11T16:30:01.322Z,12.67
2022-12-11T16:32:27.780Z,13.55
2022-12-11T16:34:54.365Z,12.95
2022-12-11T16:37:20.929Z,12.23
2022-12-11T16:39:47.412Z,11.50
2022-12-11T16:42:13.920Z,13.90
2022-12-11T16:44:44.065Z,12.95
2022-12-11T16:47:10.968Z,12.70
2022-12-11T16:49:37.464Z,12.27
2022-12-11T16:52:04.031Z,11.90
2022-12-11T16:54:30.499Z,13.93
2022-12-11T16:56:57.024Z,15.57
2022-12-11T16:59:23.479Z,18.40
2022-12-11T17:01:50.644Z,16.17
2022-12-11T17:04:17.216Z,14.82
2022-12-11T17:06:43.720Z,12.57
2022-12-11T17:09:11.322Z,12.77
2022-12-11T17:11:37.814Z,14.20
2022-12-11T17:14:04.303Z,12.35
2022-12-11T17:16:31.154Z,11.93
2022-12-11T17:18:58.232Z,11.53
2022-12-11T17:21:25.226Z,13.13
2022-12-11T17:23:51.985Z,13.13
2022-12-11T17:26:18.640Z,12.80
2022-12-11T17:28:45.406Z,14.13
2022-12-11T17:31:19.115Z,13.80
2022-12-11T17:33:46.614Z,14.70
2022-12-11T17:36:19.618Z,12.40
2022-12-11T17:38:46.354Z,12.02
2022-12-11T17:41:20.483Z,14.27
2022-12-11T17:43:51.896Z,13.87
2022-12-11T17:46:20.709Z,12.93
2022-12-11T17:48:48.247Z,15.88
2022-12-11T17:51:23.877Z,15.93
2022-12-11T17:53:51.821Z,13.77
2022-12-11T17:56:18.352Z,13.13
2022-12-11T17:58:45.043Z,11.80
2022-12-11T18:01:14.640Z,12.18
2022-12-11T18:03:41.551Z,12.07
2022-12-11T18:06:14.821Z,12.60
2022-12-11T18:08:41.519Z,11.30
2022-12-11T18:11:10.714Z,13.30
2022-12-11T18:13:37.258Z,14.82
2022-12-11T18:16:07.573Z,12.20
2022-12-11T18:18:34.526Z,12.95
2022-12-11T18:21:01.416Z,11.57
2022-12-11T18:23:28.581Z,11.48
2022-12-11T18:25:55.122Z,11.23
2022-12-11T18:28:21.917Z,11.15
2022-12-11T18:30:48.619Z,10.70
2022-12-11T18:33:15.100Z,10.03
2022-12-11T18:35:41.674Z,9.38
2022-12-11T18:38:08.288Z,10.02
2022-12-11T18:40:34.786Z,11.63
2022-12-11T18:43:01.215Z,11.38
2022-12-11T18:45:27.762Z,10.73
2022-12-11T18:47:56.399Z,14.38
2022-12-11T18:50:22.837Z,12.57
2022-12-11T18:52:54.085Z,9.77
2022-12-11T18:55:20.649Z,9.60
2022-12-11T18:57:47.105Z,9.50
2022-12-11T19:00:14.363Z,9.90
2022-12-11T19:02:40.810Z,9.07
2022-12-11T19:05:07.625Z,9.52
2022-12-11T19:07:34.397Z,12.48
2022-12-11T19:10:00.882Z,13.00
2022-12-11T19:12:27.508Z,12.88
2022-12-11T19:14:54.568Z,11.05
2022-12-11T19:17:21.007Z,9.50
2022-12-11T19:19:47.538Z,9.00
2022-12-11T19:22:15.032Z,10.23
2022-12-11T19:24:41.604Z,9.50
2022-12-11T19:27:13.296Z,9.32
2022-12-11T19:29:40.308Z,8.48
2022-12-11T19:32:06.877Z,8.43
2022-12-11T19:34:33.544Z,9.37
2022-12-11T19:37:00.192Z,9.98
2022-12-11T19:39:26.681Z,10.38
2022-12-11T19:41:53.216Z,9.18
2022-12-11T19:44:19.693Z,9.75
2022-12-11T19:46:46.269Z,9.33
2022-12-11T19:49:12.855Z,12.35
2022-12-11T19:51:41.339Z,10.23
2022-12-11T19:54:09.740Z,10.18
2022-12-11T19:56:36.321Z,9.95
2022-12-11T19:59:05.118Z,10.07
2022-12-11T20:01:34.802Z,9.73
2022-12-11T20:04:08.025Z,9.02
2022-12-11T20:06:37.556Z,9.30
2022-12-11T20:09:06.402Z,10.52
2022-12-11T20:11:33.716Z,10.30
2022-12-11T20:14:00.341Z,9.20
2022-12-11T20:16:46.305Z,9.93
2022-12-11T20:19:13.552Z,10.30
2022-12-11T20:21:40.171Z,10.80
2022-12-11T20:24:06.909Z,9.93
2022-12-11T20:26:36.031Z,10.98
2022-12-11T20:29:05.289Z,11.02
2022-12-11T20:31:33.105Z,11.30
2022-12-11T20:33:59.640Z,9.30
2022-12-11T20:36:27.356Z,9.77
2022-12-11T20:38:54.063Z,9.50
2022-12-11T20:41:23.048Z,10.20
2022-12-11T20:43:50.244Z,10.15
2022-12-11T20:46:18.438Z,9.55
2022-12-11T20:48:45.875Z,9.93
2022-12-11T20:51:14.069Z,10.15
2022-12-11T20:53:42.306Z,9.75
2022-12-11T20:56:11.057Z,9.55
2022-12-11T20:58:37.728Z,9.05
2022-12-11T21:01:04.331Z,9.50
2022-12-11T21:03:35.379Z,9.52
2022-12-11T21:06:04.180Z,9.57
2022-12-11T21:08:30.829Z,9.60
2022-12-11T21:10:57.351Z,10.93
2022-12-11T21:13:23.841Z,10.93
2022-12-11T21:15:52.599Z,10.75
2022-12-11T21:18:19.417Z,9.68
2022-12-11T21:20:45.908Z,9.70
2022-12-11T21:23:12.437Z,9.80
2022-12-11T21:25:40.561Z,10.00
2022-12-11T21:28:07.350Z,10.10
2022-12-11T21:30:33.814Z,9.52
2022-12-11T21:33:00.962Z,9.25
2022-12-11T21:35:27.525Z,10.55
2022-12-11T21:37:54.023Z,9.50
2022-12-11T21:40:20.687Z,8.80
2022-12-11T21:42:47.135Z,9.45
2022-12-11T21:48:00.078Z,10.23
2022-12-11T21:50:26.554Z,9.73
2022-12-11T21:52:53.025Z,9.80
2022-12-11T21:55:19.555Z,9.05
2022-12-11T21:57:46.031Z,9.57
2022-12-11T22:00:13.204Z,9.85
2022-12-11T22:02:41.231Z,9.20
2022-12-11T22:05:08.402Z,10.25
2022-12-11T22:07:34.896Z,9.95
2022-12-11T22:10:01.429Z,8.68
2022-12-11T22:12:29.009Z,9.02
2022-12-11T22:14:55.583Z,9.40
2022-12-11T22:17:22.461Z,8.93
2022-12-11T22:19:48.998Z,9.75
2022-12-11T22:22:15.530Z,10.20
2022-12-11T22:24:42.073Z,8.82
2022-12-11T22:27:08.791Z,9.33
2022-12-11T22:29:35.602Z,9.60
2022-12-11T22:32:02.084Z,8.63
2022-12-11T22:34:28.595Z,8.52
2022-12-11T22:36:56.203Z,8.55
2022-12-11T22:39:23.196Z,8.80
2022-12-11T22:41:49.702Z,8.93
2022-12-11T22:44:18.256Z,9.40
2022-12-11T22:46:49.696Z,8.95
2022-12-11T22:49:17.539Z,8.38
2022-12-11T22:51:44.072Z,9.73
2022-12-11T22:54:10.651Z,9.45
2022-12-11T22:56:37.182Z,9.85
2022-12-11T22:59:03.746Z,9.15
2022-12-11T23:01:30.307Z,9.98
2022-12-11T23:03:56.866Z,9.37
2022-12-11T23:06:24.871Z,9.45
2022-12-11T23:08:55.034Z,8.98
2022-12-11T23:11:25.897Z,9.00
2022-12-11T23:13:53.659Z,9.48
2022-12-11T23:16:20.859Z,9.40
2022-12-11T23:18:47.346Z,9.18
2022-12-11T23:21:14.383Z,9.93
2022-12-11T23:23:41.342Z,9.30
2022-12-11T23:26:09.824Z,9.13
2022-12-11T23:28:36.764Z,8.93
2022-12-11T23:31:04.122Z,10.00
2022-12-11T23:33:30.728Z,9.63
2022-12-11T23:35:58.009Z,9.00
2022-12-11T23:38:24.512Z,9.40
2022-12-11T23:40:51.571Z,9.87
2022-12-11T23:43:18.252Z,9.93
2022-12-11T23:45:45.830Z,9.88
2022-12-11T23:48:13.011Z,9.25
2022-12-11T23:50:40.442Z,9.73
2022-12-11T23:53:07.290Z,9.90
2022-12-11T23:55:33.908Z,8.63
2022-12-11T23:58:00.427Z,9.80
